Time;durP1;ratioP1;P1;durP2;ratioP2;P2;SDS_P1;SDS_P2;PMS_P1;PMS_P2;Temp;Humidity;BMP_temperature;BMP_pressure;BME280_temperature;BME280_humidity;BME280_pressure;Samples;Min_cycle;Max_cycle;Signal;HPM_P1;HPM_P2
2021/12/29 00:01:41;;;;;;;5.03;1.30;;;;;;;6.76;100.00;95681.69;5024676;28;20039;-64
2021/12/29 00:04:06;;;;;;;2.80;1.02;;;;;;;6.70;100.00;95702.22;5027424;28;20075;-66
2021/12/29 00:06:32;;;;;;;8.77;1.60;;;;;;;6.70;100.00;95689.41;5057722;28;20048;-65
2021/12/29 00:08:59;;;;;;;9.52;1.30;;;;;;;6.67;100.00;95705.66;5043002;28;20044;-65
2021/12/29 00:11:25;;;;;;;3.40;1.08;;;;;;;6.61;100.00;95707.13;5041395;28;20334;-66
2021/12/29 00:13:50;;;;;;;10.32;1.65;;;;;;;6.65;100.00;95710.69;5045711;28;20033;-66
2021/12/29 00:16:16;;;;;;;7.18;1.30;;;;;;;6.62;100.00;95703.25;5042321;28;20519;-66
2021/12/29 00:18:41;;;;;;;5.22;1.20;;;;;;;6.65;100.00;95708.75;5052529;28;20067;-66
2021/12/29 00:21:08;;;;;;;7.30;1.30;;;;;;;6.67;100.00;95705.66;5041166;28;20040;-67
2021/12/29 00:23:34;;;;;;;7.32;1.80;;;;;;;6.65;100.00;95711.47;5055108;28;20136;-66
2021/12/29 00:26:00;;;;;;;7.18;1.55;;;;;;;6.69;100.00;95704.13;5045151;28;20065;-65
2021/12/29 00:28:25;;;;;;;10.63;1.40;;;;;;;6.67;100.00;95711.13;5041224;28;20068;-66
2021/12/29 00:30:51;;;;;;;6.95;1.50;;;;;;;6.64;100.00;95720.00;5046071;28;20037;-65
2021/12/29 00:33:17;;;;;;;6.97;1.50;;;;;;;6.63;100.00;95715.72;5039025;28;20409;-65
2021/12/29 00:35:43;;;;;;;9.20;1.83;;;;;;;6.66;100.00;95721.22;5042709;28;20036;-66
2021/12/29 00:38:10;;;;;;;7.88;1.40;;;;;;;6.73;100.00;95731.41;5037727;28;20084;-65
2021/12/29 00:40:36;;;;;;;9.13;1.00;;;;;;;6.80;100.00;95711.69;5027025;28;20048;-66
2021/12/29 00:43:05;;;;;;;7.78;1.13;;;;;;;6.81;100.00;95733.09;5045821;28;20037;-67
2021/12/29 00:45:33;;;;;;;8.83;1.97;;;;;;;6.82;100.00;95718.31;5044371;28;20044;-65
2021/12/29 00:47:58;;;;;;;6.72;1.35;;;;;;;6.85;100.00;95738.59;5042965;28;20540;-65
2021/12/29 00:50:24;;;;;;;11.05;2.25;;;;;;;6.88;100.00;95741.38;5041297;28;20092;-66
2021/12/29 00:52:50;;;;;;;10.35;1.23;;;;;;;6.92;100.00;95746.09;5023823;28;20041;-66
2021/12/29 00:55:17;;;;;;;8.15;1.58;;;;;;;6.95;100.00;95750.78;5040528;28;20049;-67
2021/12/29 00:57:43;;;;;;;6.53;1.60;;;;;;;6.92;100.00;95733.25;5046411;28;20041;-65
2021/12/29 01:00:15;;;;;;;7.30;1.23;;;;;;;6.87;100.00;95745.25;5037604;28;20041;-65
2021/12/29 01:02:43;;;;;;;8.82;1.02;;;;;;;6.83;100.00;95768.13;5045076;28;20041;-65
2021/12/29 01:05:10;;;;;;;10.65;1.60;;;;;;;6.77;100.00;95773.09;5024964;28;20044;-65
2021/12/29 01:07:36;;;;;;;4.82;1.30;;;;;;;6.75;100.00;95771.88;5045470;28;20398;-65
2021/12/29 01:10:04;;;;;;;3.75;0.98;;;;;;;6.73;100.00;95777.66;5023455;28;20037;-65
2021/12/29 01:12:30;;;;;;;4.68;1.15;;;;;;;6.77;100.00;95788.63;5005595;28;20041;-65
2021/12/29 01:14:57;;;;;;;6.70;1.00;;;;;;;6.73;100.00;95790.50;5022098;28;20044;-66
2021/12/29 01:17:24;;;;;;;3.65;1.33;;;;;;;6.78;100.00;95801.09;5037274;28;20524;-65
2021/12/29 01:19:53;;;;;;;4.50;1.10;;;;;;;6.84;100.00;95791.44;5024434;28;20432;-65
2021/12/29 01:22:20;;;;;;;5.57;1.20;;;;;;;6.83;100.00;95795.34;5034534;28;20045;-65
2021/12/29 01:24:46;;;;;;;6.35;1.15;;;;;;;6.88;100.00;95792.31;5041861;28;20807;-65
2021/12/29 01:27:17;;;;;;;8.27;1.20;;;;;;;6.87;100.00;95794.22;5037818;28;20052;-63
2021/12/29 01:29:45;;;;;;;5.13;1.05;;;;;;;6.88;100.00;95803.19;5038545;28;20041;-65
2021/12/29 01:32:10;;;;;;;7.43;1.60;;;;;;;6.86;100.00;95808.19;5019217;28;20180;-66
2021/12/29 01:34:35;;;;;;;2.45;0.93;;;;;;;6.88;100.00;95793.09;5041499;28;20045;-64
2021/12/29 01:37:02;;;;;;;8.38;0.82;;;;;;;6.94;100.00;95801.75;5034403;28;20397;-65
2021/12/29 01:39:28;;;;;;;9.38;1.73;;;;;;;6.95;100.00;95802.50;5028614;28;20037;-64
2021/12/29 01:41:55;;;;;;;7.90;1.00;;;;;;;6.89;100.00;95827.31;5038742;28;20240;-67
2021/12/29 01:44:24;;;;;;;4.85;1.42;;;;;;;6.92;100.00;95825.81;5035635;28;20194;-64
2021/12/29 01:46:51;;;;;;;6.95;1.00;;;;;;;6.96;100.00;95828.59;5028841;28;20113;-64
2021/12/29 01:49:16;;;;;;;6.82;1.50;;;;;;;6.95;100.00;95832.47;5033150;28;20040;-63
2021/12/29 01:51:49;;;;;;;9.15;1.42;;;;;;;6.97;100.00;95827.44;5040304;28;20037;-64
2021/12/29 01:54:26;;;;;;;7.47;1.60;;;;;;;6.94;100.00;95850.75;5024296;28;20147;-64
2021/12/29 01:56:55;;;;;;;10.00;1.55;;;;;;;6.94;100.00;95842.56;5041183;28;20041;-61
2021/12/29 01:59:22;;;;;;;4.35;1.20;;;;;;;6.96;100.00;95843.00;5029927;28;20052;-64
2021/12/29 02:01:47;;;;;;;6.78;1.20;;;;;;;6.93;100.00;95821.94;5038407;28;20041;-62
2021/12/29 02:04:13;;;;;;;15.23;1.70;;;;;;;6.89;100.00;95819.16;5034901;28;20041;-62
2021/12/29 02:06:39;;;;;;;8.00;1.27;;;;;;;6.94;100.00;95828.19;5038116;28;20033;-64
2021/12/29 02:09:05;;;;;;;3.30;1.52;;;;;;;6.96;100.00;95815.75;5036273;28;20060;-67
2021/12/29 02:11:33;;;;;;;13.65;1.48;;;;;;;6.94;100.00;95822.75;5041034;28;20045;-63
2021/12/29 02:14:01;;;;;;;11.27;1.60;;;;;;;6.87;100.00;95823.41;5037303;28;20041;-63
2021/12/29 02:16:28;;;;;;;6.38;1.10;;;;;;;6.88;100.00;95833.16;5031728;28;20051;-64
2021/12/29 02:18:55;;;;;;;8.70;1.83;;;;;;;6.87;100.00;95845.16;5039568;28;20049;-64
2021/12/29 02:21:26;;;;;;;8.93;1.95;;;;;;;6.88;100.00;95842.09;5031453;28;20139;-65
2021/12/29 02:26:32;;;;;;;9.65;1.35;;;;;;;6.88;100.00;95868.53;5034801;28;20083;-65
2021/12/29 02:29:01;;;;;;;9.40;1.70;;;;;;;6.87;100.00;95859.56;5042280;28;20484;-64
2021/12/29 02:31:27;;;;;;;9.13;1.30;;;;;;;6.93;100.00;95881.81;5032272;28;20198;-63
2021/12/29 02:33:53;;;;;;;9.50;1.98;;;;;;;6.91;100.00;95886.84;5042473;28;20363;-64
2021/12/29 02:36:20;;;;;;;8.43;2.08;;;;;;;6.97;100.00;95888.13;5035577;28;20036;-64
2021/12/29 02:38:50;;;;;;;8.70;1.92;;;;;;;7.01;100.00;95891.69;5051280;28;20041;-65
2021/12/29 02:41:16;;;;;;;15.73;1.88;;;;;;;7.02;100.00;95896.00;5039037;28;20032;-64
2021/12/29 02:43:43;;;;;;;13.15;2.58;;;;;;;7.03;100.00;95908.44;5042505;28;20053;-63
2021/12/29 02:46:12;;;;;;;16.52;1.77;;;;;;;7.07;100.00;95906.56;5035392;28;20030;-63
2021/12/29 02:48:43;;;;;;;5.50;1.27;;;;;;;7.09;100.00;95895.31;5041951;28;20044;-64
2021/12/29 02:51:08;;;;;;;8.40;2.40;;;;;;;7.11;100.00;95897.69;5035693;28;20045;-63
2021/12/29 02:53:35;;;;;;;8.75;1.50;;;;;;;7.03;100.00;95904.94;5044176;28;20041;-65
2021/12/29 02:56:01;;;;;;;15.07;2.00;;;;;;;7.04;100.00;95898.34;5044283;28;20178;-63
2021/12/29 02:58:27;;;;;;;6.82;1.17;;;;;;;7.04;100.00;95909.22;5048009;28;20108;-65
2021/12/29 03:00:55;;;;;;;8.98;1.50;;;;;;;7.04;100.00;95914.69;5060358;28;20037;-64
2021/12/29 03:03:24;;;;;;;11.48;1.70;;;;;;;7.02;100.00;95914.25;5053007;28;20057;-66
2021/12/29 03:05:51;;;;;;;13.10;2.00;;;;;;;7.01;100.00;95929.81;5046666;28;20045;-62
2021/12/29 03:08:18;;;;;;;12.70;1.77;;;;;;;7.01;100.00;95926.31;5042072;28;20091;-64
2021/12/29 03:10:45;;;;;;;5.70;1.23;;;;;;;7.04;100.00;95920.94;5043793;28;20043;-65
2021/12/29 03:13:11;;;;;;;11.13;2.00;;;;;;;7.01;100.00;95918.91;5028872;28;20045;-66
2021/12/29 03:15:37;;;;;;;6.78;1.33;;;;;;;7.03;100.00;95932.19;5042656;28;20036;-66
2021/12/29 03:18:04;;;;;;;9.05;2.33;;;;;;;6.98;100.00;95930.53;5040463;28;20037;-68
2021/12/29 03:20:30;;;;;;;14.25;3.85;;;;;;;6.95;100.00;95939.44;5039963;28;20045;-65
2021/12/29 03:22:57;;;;;;;7.82;1.63;;;;;;;6.97;100.00;95944.50;5036027;28;20044;-64
2021/12/29 03:25:23;;;;;;;10.38;1.70;;;;;;;6.92;100.00;95951.03;5036742;28;20241;-66
2021/12/29 03:27:49;;;;;;;10.32;2.38;;;;;;;6.92;100.00;95951.03;5032592;28;20041;-65
2021/12/29 03:30:14;;;;;;;9.07;1.70;;;;;;;6.89;100.00;95949.81;5037123;28;20045;-64
2021/12/29 03:32:44;;;;;;;12.32;2.70;;;;;;;6.84;100.00;95960.22;5032877;28;20060;-64
2021/12/29 03:35:09;;;;;;;10.32;2.15;;;;;;;6.82;100.00;95962.50;5037283;28;20039;-66
2021/12/29 03:37:37;;;;;;;6.40;1.40;;;;;;;6.81;100.00;95967.16;5041524;28;20045;-64
2021/12/29 03:40:04;;;;;;;12.95;2.67;;;;;;;6.82;100.00;95954.34;5040945;28;20033;-68
2021/12/29 03:42:30;;;;;;;11.43;1.48;;;;;;;6.78;100.00;95967.88;5040975;28;20497;-68
2021/12/29 03:44:56;;;;;;;9.05;1.90;;;;;;;6.79;100.00;95964.03;5042178;28;20029;-64
2021/12/29 03:47:21;;;;;;;13.38;2.40;;;;;;;6.77;100.00;95949.19;5033308;28;20041;-65
2021/12/29 03:49:47;;;;;;;7.85;1.35;;;;;;;6.72;100.00;95946.75;5041532;28;20065;-64
2021/12/29 03:52:12;;;;;;;7.13;1.52;;;;;;;6.77;100.00;95968.25;5036633;28;20041;-67
2021/12/29 03:54:38;;;;;;;7.78;1.20;;;;;;;6.72;100.00;95955.72;5042587;28;20511;-64
2021/12/29 03:57:04;;;;;;;9.05;1.30;;;;;;;6.71;100.00;95959.59;5041370;28;20041;-69
2021/12/29 03:59:29;;;;;;;6.82;1.23;;;;;;;6.70;100.00;95964.25;5032576;28;20049;-67
2021/12/29 04:01:55;;;;;;;7.07;1.88;;;;;;;6.65;100.00;95967.25;5043520;28;20037;-66
2021/12/29 04:04:21;;;;;;;8.23;1.45;;;;;;;6.68;100.00;95971.19;5036584;28;20428;-66
2021/12/29 04:06:48;;;;;;;11.40;1.90;;;;;;;6.67;100.00;95973.13;5043381;28;20537;-66
2021/12/29 04:09:13;;;;;;;11.90;1.40;;;;;;;6.63;100.00;95963.31;5039308;28;20178;-66
2021/12/29 04:11:39;;;;;;;14.25;2.45;;;;;;;6.64;100.00;95971.09;5040137;28;20107;-66
2021/12/29 04:14:04;;;;;;;12.77;2.55;;;;;;;6.60;100.00;95981.13;5038941;28;20039;-69
2021/12/29 04:16:30;;;;;;;6.70;1.92;;;;;;;6.64;100.00;95965.66;5040591;28;20417;-66
2021/12/29 04:19:06;;;;;;;13.15;2.53;;;;;;;6.68;100.00;95968.44;5042886;28;20381;-66
2021/12/29 04:21:37;;;;;;;8.80;1.45;;;;;;;6.58;100.00;95977.22;5040983;28;20726;-65
2021/12/29 04:24:04;;;;;;;9.73;1.45;;;;;;;6.57;100.00;95976.44;5036832;28;20033;-68
2021/12/29 04:26:32;;;;;;;7.28;1.40;;;;;;;6.57;100.00;95979.16;5037320;28;20037;-66
2021/12/29 04:28:58;;;;;;;7.68;1.88;;;;;;;6.54;100.00;95973.66;5035309;28;20033;-65
2021/12/29 04:31:23;;;;;;;12.52;1.70;;;;;;;6.53;100.00;95977.50;5026106;28;20132;-66
2021/12/29 04:33:49;;;;;;;8.10;1.40;;;;;;;6.58;100.00;95978.00;5033724;28;20417;-67
2021/12/29 04:36:15;;;;;;;8.80;1.70;;;;;;;6.54;100.00;95982.59;5014695;28;20119;-66
2021/12/29 04:38:41;;;;;;;4.90;1.30;;;;;;;6.54;100.00;95984.53;5033436;28;20041;-66
2021/12/29 04:41:06;;;;;;;6.60;1.60;;;;;;;6.55;100.00;95975.97;5027530;28;20036;-70
2021/12/29 04:43:32;;;;;;;8.57;1.42;;;;;;;6.60;100.00;95993.97;5037192;28;20049;-66
2021/12/29 04:45:58;;;;;;;8.82;1.45;;;;;;;6.55;100.00;95997.75;5037785;28;20382;-66
2021/12/29 04:48:25;;;;;;;7.47;1.25;;;;;;;6.59;100.00;96009.50;5037249;28;20598;-67
2021/12/29 04:50:53;;;;;;;4.82;1.20;;;;;;;6.57;100.00;96011.00;5041389;28;20120;-64
2021/12/29 04:53:21;;;;;;;9.73;1.80;;;;;;;6.63;100.00;96020.47;5031952;28;20037;-69
2021/12/29 04:55:49;;;;;;;7.88;1.38;;;;;;;6.68;100.00;96020.16;5041540;28;20036;-66
2021/12/29 04:58:18;;;;;;;9.15;1.90;;;;;;;6.67;100.00;96021.31;5035140;28;20125;-66
2021/12/29 05:00:44;;;;;;;5.93;1.10;;;;;;;6.67;100.00;96030.25;5040489;28;20041;-66
2021/12/29 05:03:10;;;;;;;7.28;1.17;;;;;;;6.74;100.00;96028.84;5036245;28;20045;-65
2021/12/29 05:05:52;;;;;;;7.88;1.13;;;;;;;6.65;100.00;96031.78;5044168;28;20572;-65
2021/12/29 05:08:25;;;;;;;7.22;1.35;;;;;;;6.66;100.00;96033.34;5029991;28;20120;-65
2021/12/29 05:10:55;;;;;;;6.57;1.23;;;;;;;6.59;100.00;96034.00;5039130;28;20567;-66
2021/12/29 05:13:21;;;;;;;5.65;1.23;;;;;;;6.60;100.00;96038.28;5034070;28;20120;-62
2021/12/29 05:15:47;;;;;;;6.25;0.88;;;;;;;6.63;100.00;96029.41;5039893;28;20090;-64
2021/12/29 05:18:12;;;;;;;5.60;1.90;;;;;;;6.60;100.00;96032.84;5035968;28;20041;-65
2021/12/29 05:20:38;;;;;;;7.47;1.25;;;;;;;6.48;100.00;96036.50;5031593;28;20123;-65
2021/12/29 05:23:04;;;;;;;6.20;1.20;;;;;;;6.48;100.00;96035.69;5035682;28;20394;-65
2021/12/29 05:25:31;;;;;;;3.00;0.88;;;;;;;6.45;100.00;96039.13;5038188;28;20036;-65
2021/12/29 05:27:56;;;;;;;3.72;0.90;;;;;;;6.50;100.00;96052.47;5036759;28;20048;-65
2021/12/29 05:30:22;;;;;;;3.47;0.98;;;;;;;6.56;100.00;96061.13;5035636;28;20656;-65
2021/12/29 05:32:48;;;;;;;6.05;1.10;;;;;;;6.45;100.00;96047.28;5041663;28;20037;-65
2021/12/29 05:35:15;;;;;;;5.68;1.08;;;;;;;6.45;100.00;96045.34;5030918;28;20493;-68
2021/12/29 05:37:41;;;;;;;7.15;1.10;;;;;;;6.47;100.00;96047.72;5032236;28;20397;-65
2021/12/29 05:40:08;;;;;;;24.92;4.82;;;;;;;6.44;100.00;96051.94;5030369;28;20047;-66
2021/12/29 05:42:34;;;;;;;8.23;1.25;;;;;;;6.41;100.00;96051.84;5030757;28;20097;-64
2021/12/29 05:45:02;;;;;;;8.15;1.27;;;;;;;6.48;100.00;96050.09;5034763;28;20343;-63
2021/12/29 05:47:28;;;;;;;3.58;1.20;;;;;;;6.51;100.00;96049.38;5044322;28;20051;-66
2021/12/29 05:49:53;;;;;;;10.02;3.40;;;;;;;6.44;100.00;96041.03;5041938;28;20128;-65
2021/12/29 05:52:19;;;;;;;7.03;1.30;;;;;;;6.44;100.00;96043.00;5047300;28;20025;-68
2021/12/29 05:54:44;;;;;;;4.07;1.23;;;;;;;6.44;100.00;96043.00;5049546;28;20037;-67
2021/12/29 05:57:10;;;;;;;8.85;1.27;;;;;;;6.44;100.00;96045.72;5046466;28;20063;-64
2021/12/29 05:59:35;;;;;;;8.07;1.50;;;;;;;6.44;100.00;96051.16;5039850;28;20037;-64
2021/12/29 06:02:01;;;;;;;7.90;1.58;;;;;;;6.46;100.00;96054.28;5040712;28;20497;-64
2021/12/29 06:04:26;;;;;;;8.48;2.08;;;;;;;6.48;100.00;96062.88;5035185;28;20037;-66
2021/12/29 06:06:52;;;;;;;5.93;1.50;;;;;;;6.54;100.00;96061.47;5039945;28;20126;-65
2021/12/29 06:09:17;;;;;;;5.60;1.20;;;;;;;6.61;100.00;96066.25;5035439;28;20040;-66
2021/12/29 06:11:43;;;;;;;6.57;1.15;;;;;;;6.66;100.00;96063.28;5029030;28;20582;-67
2021/12/29 06:14:08;;;;;;;6.53;1.15;;;;;;;6.65;100.00;96072.59;5035393;28;20106;-65
2021/12/29 06:16:34;;;;;;;5.82;1.40;;;;;;;6.67;100.00;96071.09;5040563;28;20059;-65
2021/12/29 06:18:59;;;;;;;6.03;1.30;;;;;;;6.80;100.00;96047.25;5041946;28;20506;-64
2021/12/29 06:21:24;;;;;;;6.18;1.65;;;;;;;6.87;100.00;96050.09;5033936;28;20049;-65
2021/12/29 06:23:50;;;;;;;3.53;1.20;;;;;;;6.92;100.00;96061.88;5040663;28;20394;-67
2021/12/29 06:26:15;;;;;;;6.20;1.55;;;;;;;6.94;100.00;96075.91;5034838;28;20208;-68
2021/12/29 06:28:41;;;;;;;9.45;1.38;;;;;;;6.92;100.00;96067.31;5030585;28;20037;-66
2021/12/29 06:31:07;;;;;;;10.52;1.73;;;;;;;6.92;100.00;96067.31;5030589;28;20123;-68
2021/12/29 06:33:33;;;;;;;6.80;1.52;;;;;;;6.94;100.00;96073.19;5037631;28;20106;-65
2021/12/29 06:35:59;;;;;;;4.63;1.13;;;;;;;7.02;100.00;96066.72;5038896;28;20033;-66
2021/12/29 06:38:24;;;;;;;6.47;1.00;;;;;;;6.95;100.00;96061.13;5034687;28;20045;-65
2021/12/29 06:40:50;;;;;;;8.52;1.35;;;;;;;7.06;100.00;96065.66;5039437;28;20037;-65
2021/12/29 06:43:15;;;;;;;4.30;1.10;;;;;;;6.96;100.00;96076.34;5034160;28;20747;-65
2021/12/29 06:45:41;;;;;;;4.78;1.25;;;;;;;6.83;100.00;96083.88;5039601;28;20041;-65
2021/12/29 06:48:06;;;;;;;8.43;1.23;;;;;;;6.77;100.00;96088.81;5024745;28;20532;-67
2021/12/29 06:50:33;;;;;;;7.88;1.40;;;;;;;6.74;100.00;96089.50;5039716;28;20041;-66
2021/12/29 06:52:59;;;;;;;6.38;1.30;;;;;;;6.72;100.00;96080.91;5036204;28;20040;-67
2021/12/29 06:55:24;;;;;;;9.27;1.25;;;;;;;6.76;100.00;96095.38;5030955;28;20048;-66
2021/12/29 06:57:49;;;;;;;8.27;1.48;;;;;;;6.78;100.00;96098.53;5037730;28;20033;-66
2021/12/29 07:00:15;;;;;;;8.00;1.40;;;;;;;6.76;100.00;96103.53;5033064;28;20045;-65
2021/12/29 07:02:41;;;;;;;5.45;1.50;;;;;;;6.75;100.00;96114.78;5039834;28;20486;-66
2021/12/29 07:05:07;;;;;;;10.52;2.05;;;;;;;6.81;100.00;96118.81;5032123;28;20048;-65
2021/12/29 07:07:32;;;;;;;16.63;1.95;;;;;;;6.76;100.00;96114.44;5038959;28;20643;-66
2021/12/29 07:09:58;;;;;;;13.32;1.85;;;;;;;6.77;100.00;96126.09;5038645;28;20470;-67
2021/12/29 07:12:23;;;;;;;6.68;2.03;;;;;;;6.75;100.00;96128.38;5033363;28;20154;-65
2021/12/29 07:14:49;;;;;;;11.15;2.35;;;;;;;6.76;100.00;96127.25;5026373;28;20037;-65
2021/12/29 07:17:15;;;;;;;12.32;2.10;;;;;;;6.74;100.00;96124.88;5031571;28;20520;-66
2021/12/29 07:19:40;;;;;;;5.55;1.80;;;;;;;6.77;100.00;96135.06;5040087;28;20052;-65
2021/12/29 07:22:06;;;;;;;5.53;1.70;;;;;;;6.77;100.00;96137.78;5034359;28;20386;-69
2021/12/29 07:24:33;;;;;;;9.82;1.55;;;;;;;6.73;100.00;96147.00;5046707;28;20068;-68
2021/12/29 07:26:58;;;;;;;13.15;2.10;;;;;;;6.79;100.00;96151.84;5052076;28;20520;-66
2021/12/29 07:29:24;;;;;;;8.80;1.98;;;;;;;6.81;100.00;96152.25;5042333;28;20037;-64
2021/12/29 07:31:49;;;;;;;9.18;2.03;;;;;;;6.83;100.00;96155.41;5039222;28;20040;-65
2021/12/29 07:34:15;;;;;;;9.68;1.92;;;;;;;6.78;100.00;96152.97;5034063;28;20120;-66
2021/12/29 07:36:40;;;;;;;7.22;1.40;;;;;;;6.77;100.00;96148.69;5038536;28;20068;-66
2021/12/29 07:39:09;;;;;;;9.82;1.67;;;;;;;6.78;100.00;96163.06;5031729;28;20045;-69
2021/12/29 07:41:36;;;;;;;12.90;1.67;;;;;;;6.75;100.00;96148.22;5036688;28;20044;-64
2021/12/29 07:44:04;;;;;;;6.85;1.40;;;;;;;6.84;100.00;96156.19;5036300;28;20107;-66
2021/12/29 07:46:33;;;;;;;6.47;1.40;;;;;;;6.78;100.00;96161.13;5036344;28;20048;-63
2021/12/29 07:48:59;;;;;;;6.03;1.40;;;;;;;6.79;100.00;96154.56;5028914;28;20041;-66
2021/12/29 07:51:25;;;;;;;10.73;2.03;;;;;;;6.76;100.00;96163.41;5034135;28;20823;-68
2021/12/29 07:53:50;;;;;;;9.25;1.48;;;;;;;6.80;100.00;96156.13;5036384;28;20049;-67
2021/12/29 07:56:16;;;;;;;11.30;1.70;;;;;;;6.89;100.00;96167.59;5032494;28;20073;-62
2021/12/29 07:58:42;;;;;;;13.10;1.40;;;;;;;6.94;100.00;96163.81;5037383;28;20037;-63
2021/12/29 08:01:08;;;;;;;9.65;1.77;;;;;;;7.05;100.00;96162.09;5032467;28;20056;-65
2021/12/29 08:03:34;;;;;;;10.50;1.85;;;;;;;7.11;100.00;96159.88;5037161;28;20097;-66
2021/12/29 08:06:00;;;;;;;9.88;1.73;;;;;;;7.13;100.00;96163.06;5038168;28;20036;-65
2021/12/29 08:08:25;;;;;;;12.23;1.80;;;;;;;7.20;100.00;96157.75;5033101;28;20848;-66
2021/12/29 08:10:51;;;;;;;10.65;1.70;;;;;;;7.24;100.00;96164.06;5039245;28;20037;-67
2021/12/29 08:13:17;;;;;;;8.68;1.35;;;;;;;7.30;100.00;96166.50;5032708;28;20044;-66
2021/12/29 08:15:42;;;;;;;10.82;1.98;;;;;;;7.30;100.00;96166.50;5038804;28;20075;-65
2021/12/29 08:18:07;;;;;;;7.13;1.15;;;;;;;7.36;100.00;96178.69;5023771;28;20124;-68
2021/12/29 08:20:35;;;;;;;9.05;1.70;;;;;;;7.36;100.00;96181.41;5040066;28;20049;-66
2021/12/29 08:23:03;;;;;;;17.48;2.58;;;;;;;7.37;100.00;96185.72;5038670;28;20036;-68
2021/12/29 08:25:29;;;;;;;8.75;1.70;;;;;;;7.38;100.00;96187.28;5038375;28;20148;-65
2021/12/29 08:27:54;;;;;;;11.18;1.40;;;;;;;7.41;100.00;96192.03;5041240;28;20029;-65
2021/12/29 08:30:20;;;;;;;6.70;1.13;;;;;;;7.43;100.00;96192.44;5037723;28;20079;-69
2021/12/29 08:32:45;;;;;;;12.38;1.85;;;;;;;7.43;100.00;96204.13;5047180;28;20517;-66
2021/12/29 08:35:11;;;;;;;9.48;1.60;;;;;;;7.46;100.00;96202.66;5049470;28;20603;-65
2021/12/29 08:37:37;;;;;;;8.27;1.63;;;;;;;7.48;100.00;96194.91;5043484;28;20394;-65
2021/12/29 08:40:07;;;;;;;9.60;1.40;;;;;;;7.50;100.00;96210.88;5049550;28;20071;-70
2021/12/29 08:42:33;;;;;;;14.00;1.85;;;;;;;7.61;99.98;96204.50;5061393;28;20045;-68
2021/12/29 08:44:58;;;;;;;13.10;1.83;;;;;;;7.54;100.00;96207.06;5053230;28;20048;-66
2021/12/29 08:47:24;;;;;;;6.80;1.60;;;;;;;7.49;100.00;96207.38;5041230;28;20837;-66
2021/12/29 08:49:49;;;;;;;7.53;1.58;;;;;;;7.66;100.00;96223.28;5045351;28;20037;-64
2021/12/29 08:52:14;;;;;;;9.23;2.42;;;;;;;7.72;99.21;96229.22;5038956;28;20139;-68
2021/12/29 08:54:40;;;;;;;7.47;1.65;;;;;;;7.72;98.50;96223.00;5044007;28;20067;-66
2021/12/29 08:57:06;;;;;;;5.97;1.35;;;;;;;7.79;98.85;96229.38;5039489;28;20033;-67
2021/12/29 08:59:32;;;;;;;9.70;1.50;;;;;;;7.96;97.52;96235.53;5044596;28;20143;-67
2021/12/29 09:01:57;;;;;;;10.43;1.90;;;;;;;7.84;98.10;96239.22;5040354;28;20033;-67
2021/12/29 09:04:23;;;;;;;5.28;1.85;;;;;;;7.78;99.03;96238.72;5036882;28;20051;-67
2021/12/29 09:06:48;;;;;;;6.68;1.83;;;;;;;7.69;98.60;96240.88;5037932;28;20127;-65
2021/12/29 09:09:14;;;;;;;12.48;1.73;;;;;;;7.79;99.33;96242.22;5037260;28;20086;-67
2021/12/29 09:11:40;;;;;;;10.25;1.70;;;;;;;7.75;99.23;96241.38;5041586;28;20033;-69
2021/12/29 09:14:06;;;;;;;9.75;2.08;;;;;;;7.63;99.51;96240.38;5036873;28;20033;-65
2021/12/29 09:16:32;;;;;;;7.82;1.55;;;;;;;7.62;98.56;96236.06;5041420;28;20044;-64
2021/12/29 09:18:58;;;;;;;8.25;1.75;;;;;;;7.63;99.23;96225.94;5042380;28;20079;-63
2021/12/29 09:21:26;;;;;;;7.57;1.50;;;;;;;7.64;99.55;96232.97;5037451;28;20549;-64
2021/12/29 09:23:51;;;;;;;10.73;1.60;;;;;;;7.67;98.81;96237.72;5041948;28;20039;-67
2021/12/29 09:26:17;;;;;;;13.60;2.20;;;;;;;7.71;98.92;96235.84;5034414;28;20119;-64
2021/12/29 09:28:44;;;;;;;7.80;1.67;;;;;;;7.83;98.04;96234.91;5042065;28;20122;-67
2021/12/29 09:31:10;;;;;;;9.38;1.70;;;;;;;7.84;95.25;96229.09;5034948;28;20036;-68
2021/12/29 09:33:35;;;;;;;11.00;1.30;;;;;;;7.83;94.17;96222.06;5039956;28;20040;-66
2021/12/29 09:36:02;;;;;;;12.02;1.63;;;;;;;7.86;94.06;96223.28;5041527;28;20654;-66
2021/12/29 09:38:35;;;;;;;15.80;5.53;;;;;;;8.00;92.83;96225.50;5038597;28;20123;-65
2021/12/29 09:41:02;;;;;;;9.88;2.03;;;;;;;7.95;92.27;96226.56;5042009;28;20033;-68
2021/12/29 09:43:28;;;;;;;11.65;1.70;;;;;;;7.95;92.37;96228.50;5034839;28;20044;-65
2021/12/29 09:45:54;;;;;;;5.78;1.65;;;;;;;7.92;93.17;96227.28;5041826;28;20029;-65
2021/12/29 09:48:20;;;;;;;12.20;2.47;;;;;;;7.92;92.31;96235.47;5034035;28;20040;-66
2021/12/29 09:50:46;;;;;;;14.60;2.97;;;;;;;7.94;92.76;96235.91;5038909;28;20098;-66
2021/12/29 09:53:12;;;;;;;8.73;1.95;;;;;;;7.95;92.29;96248.38;5034518;28;20456;-64
2021/12/29 09:55:38;;;;;;;10.30;2.10;;;;;;;7.90;92.08;96248.66;5040746;28;20083;-66
2021/12/29 09:58:05;;;;;;;6.45;1.73;;;;;;;7.94;91.55;96257.72;5037427;28;20094;-69
2021/12/29 10:00:41;;;;;;;5.63;1.58;;;;;;;7.94;91.51;96257.72;5040219;28;20044;-65
2021/12/29 10:03:09;;;;;;;8.65;1.42;;;;;;;7.98;90.17;96244.94;5034564;28;20323;-66
2021/12/29 10:05:38;;;;;;;6.90;1.50;;;;;;;7.96;87.93;96228.16;5040713;28;20520;-65
2021/12/29 10:08:11;;;;;;;5.50;1.10;;;;;;;8.01;87.41;96230.59;5045859;28;20037;-71
2021/12/29 10:10:40;;;;;;;4.82;1.10;;;;;;;7.97;87.23;96237.13;5053108;28;20060;-66
2021/12/29 10:13:08;;;;;;;12.07;1.40;;;;;;;7.93;87.42;96252.63;5033771;28;20044;-69
2021/12/29 10:15:37;;;;;;;5.13;1.27;;;;;;;7.97;87.47;96240.63;5041756;28;20135;-67
2021/12/29 10:18:15;;;;;;;4.45;1.33;;;;;;;7.94;88.14;96257.72;5040298;28;20052;-69
2021/12/29 10:20:44;;;;;;;5.15;1.10;;;;;;;7.97;87.98;96245.31;5041335;28;20374;-67
2021/12/29 10:23:15;;;;;;;1.58;0.75;;;;;;;7.86;87.18;96256.00;5034695;28;20045;-67
2021/12/29 10:25:41;;;;;;;3.55;1.02;;;;;;;7.84;87.02;96242.72;5041190;28;20051;-67
2021/12/29 10:28:06;;;;;;;2.63;0.80;;;;;;;7.88;86.84;96247.47;5035568;28;20033;-70
2021/12/29 10:30:32;;;;;;;1.60;0.70;;;;;;;7.80;86.85;96260.19;5040561;28;20580;-66
2021/12/29 10:33:09;;;;;;;4.40;0.70;;;;;;;7.85;87.39;96265.34;5041122;28;20040;-66
2021/12/29 10:35:35;;;;;;;7.65;2.97;;;;;;;7.79;85.61;96262.09;5038444;28;20037;-66
2021/12/29 10:38:16;;;;;;;3.63;0.73;;;;;;;7.80;86.73;96266.41;5037542;28;20114;-67
2021/12/29 10:40:42;;;;;;;1.83;0.80;;;;;;;7.85;86.89;96276.25;5034885;28;20092;-66
2021/12/29 10:43:08;;;;;;;0.70;0.63;;;;;;;7.81;87.12;96270.72;5029740;28;20127;-68
2021/12/29 10:45:38;;;;;;;1.55;0.60;;;;;;;7.82;86.64;96279.69;5035841;28;20494;-68
2021/12/29 10:48:28;;;;;;;2.22;0.70;;;;;;;7.74;85.99;96270.59;5036010;28;20068;-70
2021/12/29 10:51:05;;;;;;;1.15;0.70;;;;;;;7.75;87.10;96272.16;5040492;28;20059;-66
2021/12/29 10:53:34;;;;;;;2.50;0.77;;;;;;;7.72;87.31;96270.13;5038184;28;20047;-66
2021/12/29 10:56:00;;;;;;;1.10;0.70;;;;;;;7.73;86.50;96273.66;5039523;28;20041;-68
2021/12/29 10:58:28;;;;;;;0.80;0.80;;;;;;;7.69;86.95;96279.03;5031334;28;20383;-67
2021/12/29 11:01:05;;;;;;;1.95;0.77;;;;;;;7.71;87.14;96275.97;5040286;28;20582;-64
2021/12/29 11:03:32;;;;;;;2.50;0.60;;;;;;;7.73;87.11;96279.91;5034579;28;20596;-65
2021/12/29 11:06:00;;;;;;;1.58;0.52;;;;;;;7.67;87.22;96278.63;5038633;28;20493;-65
2021/12/29 11:08:31;;;;;;;1.45;0.60;;;;;;;7.70;88.12;96274.38;5035730;28;20045;-64
2021/12/29 11:11:05;;;;;;;1.08;0.52;;;;;;;7.73;87.37;96279.13;5039872;28;20135;-66
2021/12/29 11:13:32;;;;;;;1.52;0.75;;;;;;;7.71;87.84;96282.19;5035672;28;20037;-65
2021/12/29 11:15:59;;;;;;;1.00;0.60;;;;;;;7.67;88.46;96275.88;5043117;28;20052;-67
2021/12/29 11:18:26;;;;;;;1.45;0.47;;;;;;;7.73;86.92;96282.63;5048280;28;20116;-65
2021/12/29 11:20:53;;;;;;;1.00;0.88;;;;;;;7.57;88.10;96269.03;5049318;28;20103;-65
2021/12/29 11:23:20;;;;;;;1.33;0.50;;;;;;;7.62;87.53;96268.00;5041220;28;20037;-65
2021/12/29 11:25:47;;;;;;;1.10;0.80;;;;;;;7.55;88.93;96270.56;5022265;28;20540;-67
2021/12/29 11:28:23;;;;;;;1.27;0.80;;;;;;;7.52;89.60;96268.53;5032217;28;20049;-67
2021/12/29 11:30:49;;;;;;;4.53;1.33;;;;;;;7.71;89.10;96245.97;5038732;28;20087;-67
2021/12/29 11:33:14;;;;;;;5.25;1.75;;;;;;;7.52;90.30;96250.25;5036096;28;20136;-66
2021/12/29 11:35:42;;;;;;;2.22;0.90;;;;;;;7.50;91.36;96255.28;5039307;28;20131;-64